createdAt,value
2022-12-06T00:01:34.881Z,100569.94
2022-12-06T00:04:08.878Z,100533.88
2022-12-06T00:06:42.176Z,100537.13
2022-12-06T00:09:21.416Z,100531.13
2022-12-06T00:11:50.858Z,100519.75
2022-12-06T00:14:20.454Z,100542.28
2022-12-06T00:16:48.804Z,100555.25
2022-12-06T00:19:18.875Z,100559.88
2022-12-06T00:21:47.712Z,100531.97
2022-12-06T00:24:18.405Z,100551.19
2022-12-06T00:26:48.480Z,100552.28
2022-12-06T00:29:20.268Z,100550.94
2022-12-06T00:31:48.355Z,100443.00
2022-12-06T00:34:16.556Z,100499.22
2022-12-06T00:36:44.747Z,100509.00
2022-12-06T00:39:16.292Z,100494.63
2022-12-06T00:41:45.466Z,100514.38
2022-12-06T00:44:13.604Z,100492.75
2022-12-06T00:46:41.688Z,100474.31
2022-12-06T00:49:10.141Z,100524.63
2022-12-06T00:51:38.761Z,100526.25
2022-12-06T00:54:08.247Z,100470.75
2022-12-06T00:56:37.402Z,100519.72
2022-12-06T00:59:06.436Z,100486.19
2022-12-06T01:01:36.438Z,100488.31
2022-12-06T01:04:06.816Z,100512.69
2022-12-06T01:06:36.553Z,100509.41
2022-12-06T01:09:10.397Z,100516.44
2022-12-06T01:11:38.835Z,100473.13
2022-12-06T01:14:06.830Z,100509.16
2022-12-06T01:16:35.420Z,100478.53
2022-12-06T01:19:05.911Z,100464.50
2022-12-06T01:21:33.726Z,100485.03
2022-12-06T01:24:01.781Z,100508.88
2022-12-06T01:26:34.613Z,100434.75
2022-12-06T01:29:03.035Z,100495.84
2022-12-06T01:31:37.612Z,100494.22
2022-12-06T01:34:13.617Z,100504.78
2022-12-06T01:36:45.912Z,100480.69
2022-12-06T01:39:13.892Z,100499.66
2022-12-06T01:41:41.983Z,100504.84
2022-12-06T01:44:40.213Z,100478.31
2022-12-06T01:47:26.680Z,100497.50
2022-12-06T01:49:54.447Z,100496.97
2022-12-06T01:52:27.781Z,100370.44
2022-12-06T01:54:56.811Z,100418.59
2022-12-06T01:57:25.005Z,100450.72
2022-12-06T01:59:52.856Z,100358.56
2022-12-06T02:02:21.144Z,100432.09
2022-12-06T02:04:51.126Z,100481.81
2022-12-06T02:07:22.299Z,100468.81
2022-12-06T02:09:52.252Z,100437.50
2022-12-06T02:12:19.937Z,100433.47
2022-12-06T02:14:50.969Z,100478.13
2022-12-06T02:17:24.786Z,100495.97
2022-12-06T02:20:04.891Z,100496.47
2022-12-06T02:22:54.919Z,100490.00
2022-12-06T02:25:43.462Z,100487.81
2022-12-06T02:28:39.235Z,100484.03
2022-12-06T02:31:19.220Z,100476.47
2022-12-06T02:33:52.767Z,100486.72
2022-12-06T02:36:38.749Z,100447.50
2022-12-06T02:39:12.643Z,100477.50
2022-12-06T02:41:52.465Z,100452.09
2022-12-06T02:44:33.353Z,100437.50
2022-12-06T02:47:04.052Z,100446.09
2022-12-06T02:49:34.331Z,100458.81
2022-12-06T02:52:03.348Z,100484.00
2022-12-06T02:54:32.648Z,100410.44
2022-12-06T02:57:00.915Z,100476.38
2022-12-06T02:59:28.594Z,100419.56
2022-12-06T03:01:59.843Z,100443.91
2022-12-06T03:05:06.271Z,100459.28
2022-12-06T03:07:41.696Z,100442.31
2022-12-06T03:10:18.844Z,100461.19
2022-12-06T03:13:16.598Z,100459.59
2022-12-06T03:15:57.817Z,100450.91
2022-12-06T03:18:42.760Z,100452.03
2022-12-06T03:21:18.860Z,100363.84
2022-12-06T03:23:51.954Z,100436.91
2022-12-06T03:26:26.752Z,100386.63
2022-12-06T03:28:58.325Z,100452.84
2022-12-06T03:31:29.831Z,100450.41
2022-12-06T03:34:25.471Z,100416.63
2022-12-06T03:36:53.668Z,100445.00
2022-12-06T03:40:09.339Z,100395.78
2022-12-06T03:42:37.628Z,100298.22
2022-12-06T03:45:06.741Z,100431.47
2022-12-06T03:47:42.365Z,100380.63
2022-12-06T03:50:18.044Z,100424.88
2022-12-06T03:52:45.693Z,100424.88
2022-12-06T03:55:13.520Z,100379.50
2022-12-06T03:57:41.438Z,100407.09
2022-12-06T04:00:09.918Z,100369.19
2022-12-06T04:02:40.634Z,100360.81
2022-12-06T04:05:08.909Z,100382.94
2022-12-06T04:07:37.047Z,100405.38
2022-12-06T04:10:05.588Z,100346.44
2022-12-06T04:12:53.734Z,100394.50
2022-12-06T04:15:22.681Z,100398.56
2022-12-06T04:18:09.720Z,100368.34
2022-12-06T04:21:11.390Z,100392.38
2022-12-06T04:23:41.235Z,100394.53
2022-12-06T04:26:12.752Z,100399.41
2022-12-06T04:28:59.706Z,100384.53
2022-12-06T04:31:48.513Z,100396.19
2022-12-06T04:34:35.945Z,100392.41
2022-12-06T04:37:23.004Z,100394.59
2022-12-06T04:39:51.296Z,100389.97
2022-12-06T04:42:38.418Z,100380.00
2022-12-06T04:45:07.489Z,100361.06
2022-12-06T04:47:35.444Z,100392.97
2022-12-06T04:50:04.011Z,100394.59
2022-12-06T04:52:35.612Z,100380.59
2022-12-06T04:55:05.444Z,100385.75
2022-12-06T04:57:33.494Z,100358.41
2022-12-06T05:00:01.631Z,100329.47
2022-12-06T05:02:29.480Z,100373.53
2022-12-06T05:04:57.710Z,100390.84
2022-12-06T05:07:25.504Z,100356.00
2022-12-06T05:09:53.113Z,100384.88
2022-12-06T05:12:20.959Z,100345.97
2022-12-06T05:14:48.865Z,100294.34
2022-12-06T05:17:16.600Z,100152.50
2022-12-06T05:19:44.175Z,100373.50
2022-12-06T05:22:11.854Z,100390.25
2022-12-06T05:24:39.828Z,100408.09
2022-12-06T05:27:07.457Z,100395.09
2022-12-06T05:29:35.376Z,100320.22
2022-12-06T05:32:03.056Z,100403.19
2022-12-06T05:34:30.759Z,100406.97
2022-12-06T05:36:58.469Z,100412.94
2022-12-06T05:39:26.153Z,100423.56
2022-12-06T05:41:53.783Z,100423.78
2022-12-06T05:44:21.561Z,100422.44
2022-12-06T05:46:49.251Z,100368.88
2022-12-06T05:49:17.030Z,100399.22
2022-12-06T05:51:44.707Z,100383.78
2022-12-06T05:54:12.751Z,100414.03
2022-12-06T05:56:41.091Z,100371.09
2022-12-06T05:59:09.957Z,100437.84
2022-12-06T06:01:37.620Z,100379.44
2022-12-06T06:04:05.778Z,100402.66
2022-12-06T06:06:33.551Z,100349.97
2022-12-06T06:09:01.458Z,100434.53
2022-12-06T06:11:29.221Z,100274.53
2022-12-06T06:13:56.929Z,100374.53
2022-12-06T06:16:24.761Z,100375.59
2022-12-06T06:18:52.915Z,100447.50
2022-12-06T06:21:20.603Z,100428.50
2022-12-06T06:23:48.732Z,100333.97
2022-12-06T06:26:16.424Z,100429.59
2022-12-06T06:28:44.348Z,100365.63
2022-12-06T06:31:12.662Z,100381.53
2022-12-06T06:33:40.413Z,100399.84
2022-12-06T06:36:08.843Z,100403.19
2022-12-06T06:38:36.737Z,100420.44
2022-12-06T06:41:05.932Z,100414.53
2022-12-06T06:43:33.855Z,100435.84
2022-12-06T06:46:04.713Z,100442.09
2022-12-06T06:48:35.335Z,100407.28
2022-12-06T06:51:11.798Z,100453.75
2022-12-06T06:53:39.825Z,100443.78
2022-12-06T06:56:07.969Z,100412.41
2022-12-06T06:58:35.719Z,100423.19
2022-12-06T07:01:05.987Z,100390.19
2022-12-06T07:03:34.240Z,100450.22
2022-12-06T07:06:07.204Z,100443.78
2022-12-06T07:08:35.451Z,100449.72
2022-12-06T07:11:03.785Z,100440.56
2022-12-06T07:13:32.374Z,100441.13
2022-12-06T07:16:04.123Z,100409.50
2022-12-06T07:18:32.793Z,100394.09
2022-12-06T07:21:12.876Z,100438.34
2022-12-06T07:23:40.679Z,100439.75
2022-12-06T07:26:12.522Z,100388.66
2022-12-06T07:28:43.048Z,100450.28
2022-12-06T07:31:14.105Z,100401.34
2022-12-06T07:33:44.314Z,100446.47
2022-12-06T07:36:14.368Z,100391.31
2022-12-06T07:38:43.793Z,100422.72
2022-12-06T07:41:31.942Z,100414.13
2022-12-06T07:44:19.840Z,100441.13
2022-12-06T07:46:48.592Z,100429.19
2022-12-06T07:49:17.886Z,100429.50
2022-12-06T07:51:46.843Z,100457.34
2022-12-06T07:54:17.260Z,100462.19
2022-12-06T07:56:45.300Z,100465.47
2022-12-06T07:59:13.538Z,100458.16
2022-12-06T08:01:41.377Z,100452.22
2022-12-06T08:04:09.570Z,100415.41
2022-12-06T08:06:37.578Z,100396.53
2022-12-06T08:09:05.953Z,100462.47
2022-12-06T08:11:34.471Z,100455.94
2022-12-06T08:14:03.256Z,100459.44
2022-12-06T08:16:33.004Z,100424.84
2022-12-06T08:19:02.395Z,100443.75
2022-12-06T08:21:30.403Z,100423.75
2022-12-06T08:23:59.191Z,100455.94
2022-12-06T08:26:28.517Z,100448.38
2022-12-06T08:28:56.775Z,100468.16
2022-12-06T08:31:25.008Z,100439.47
2022-12-06T08:33:54.233Z,100449.13
2022-12-06T08:36:23.262Z,100450.22
2022-12-06T08:38:52.947Z,100467.03
2022-12-06T08:41:41.547Z,100466.75
2022-12-06T08:44:14.000Z,100458.97
2022-12-06T08:46:42.428Z,100465.41
2022-12-06T08:49:11.823Z,100479.41
2022-12-06T08:51:40.422Z,100490.28
2022-12-06T08:54:10.109Z,100493.28
2022-12-06T08:56:38.400Z,100480.31
2022-12-06T08:59:12.023Z,100490.28
2022-12-06T09:01:40.828Z,100493.28
2022-12-06T09:04:12.118Z,100501.44
2022-12-06T09:06:43.152Z,100497.34
2022-12-06T09:09:13.825Z,100491.69
2022-12-06T09:11:42.995Z,100461.63
2022-12-06T09:14:21.145Z,100494.06
2022-12-06T09:16:52.718Z,100503.75
2022-12-06T09:19:20.964Z,100459.44
2022-12-06T09:21:49.405Z,100497.00
2022-12-06T09:24:21.879Z,100511.56
2022-12-06T09:26:49.994Z,100520.44
2022-12-06T09:29:19.989Z,100495.56
2022-12-06T09:31:48.676Z,100520.59
2022-12-06T09:34:17.511Z,100529.25
2022-12-06T09:36:49.507Z,100523.50
2022-12-06T09:39:35.579Z,100483.50
2022-12-06T09:42:18.750Z,100536.47
2022-12-06T09:45:16.579Z,100538.19
2022-12-06T09:48:01.165Z,100507.81
2022-12-06T09:50:37.133Z,100548.44
2022-12-06T09:53:17.968Z,100548.94
2022-12-06T09:56:13.116Z,100541.28
2022-12-06T09:58:56.661Z,100544.00
2022-12-06T10:01:49.894Z,100547.75
2022-12-06T10:04:46.081Z,100491.50
2022-12-06T10:07:41.000Z,100544.19
2022-12-06T10:10:36.950Z,100542.88
2022-12-06T10:13:53.524Z,100549.84
2022-12-06T10:16:33.440Z,100540.84
2022-12-06T10:19:26.493Z,100540.03
2022-12-06T10:22:02.916Z,100537.81
2022-12-06T10:24:54.855Z,100539.44
2022-12-06T10:27:55.654Z,100510.34
2022-12-06T10:30:23.817Z,100513.28
2022-12-06T10:33:29.783Z,100541.06
2022-12-06T10:36:04.258Z,100454.53
2022-12-06T10:38:47.390Z,100535.63
2022-12-06T10:41:36.797Z,100476.69
2022-12-06T10:44:39.187Z,100513.47
2022-12-06T10:47:31.198Z,100489.09
2022-12-06T10:50:22.610Z,100521.38
2022-12-06T10:53:03.134Z,100476.75
2022-12-06T10:55:44.556Z,100515.84
2022-12-06T10:58:44.675Z,100512.31
2022-12-06T11:01:34.636Z,100472.66
2022-12-06T11:04:17.492Z,100479.72
2022-12-06T11:06:54.481Z,100442.41
2022-12-06T11:09:44.190Z,100503.44
2022-12-06T11:12:40.358Z,100498.78
2022-12-06T11:15:21.685Z,100500.19
2022-12-06T11:18:00.866Z,100473.22
2022-12-06T11:20:39.325Z,100466.09
2022-12-06T11:23:22.328Z,100479.59
2022-12-06T11:26:02.084Z,100425.28
2022-12-06T11:28:36.702Z,100474.72
2022-12-06T11:31:19.732Z,100449.63
2022-12-06T11:33:48.046Z,100369.03
2022-12-06T11:36:16.303Z,100427.59
2022-12-06T11:38:45.426Z,100459.72
2022-12-06T11:41:22.698Z,100450.75
2022-12-06T11:43:53.472Z,100444.34
2022-12-06T11:46:23.412Z,100431.69
2022-12-06T11:48:51.993Z,100403.88
2022-12-06T11:51:25.321Z,100451.34
2022-12-06T11:53:53.232Z,100455.19
2022-12-06T11:56:26.819Z,100400.22
2022-12-06T11:59:30.565Z,100446.28
2022-12-06T12:02:03.974Z,100412.84
2022-12-06T12:04:40.395Z,100445.47
2022-12-06T12:07:16.255Z,100441.34
2022-12-06T12:10:02.142Z,100400.38
2022-12-06T12:13:16.875Z,100435.91
2022-12-06T12:15:53.825Z,100397.03
2022-12-06T12:18:31.123Z,100433.72
2022-12-06T12:21:00.229Z,100432.13
2022-12-06T12:23:45.976Z,100434.53
2022-12-06T12:26:19.142Z,100432.63
2022-12-06T12:29:15.458Z,100404.00
2022-12-06T12:32:11.170Z,100426.53
2022-12-06T12:34:42.889Z,100428.66
2022-12-06T12:37:21.467Z,100423.19
2022-12-06T12:39:55.447Z,100416.38
2022-12-06T12:42:33.241Z,100352.50
2022-12-06T12:45:05.570Z,100390.41
2022-12-06T12:47:33.375Z,100369.94
2022-12-06T12:50:22.043Z,100412.00
2022-12-06T12:52:51.214Z,100363.75
2022-12-06T12:55:30.061Z,100335.59
2022-12-06T12:58:01.106Z,100402.78
2022-12-06T13:00:32.797Z,100397.03
2022-12-06T13:03:34.868Z,100392.09
2022-12-06T13:06:02.782Z,100392.31
2022-12-06T13:08:37.146Z,100359.66
2022-12-06T13:11:06.413Z,100388.78
2022-12-06T13:13:39.878Z,100383.88
2022-12-06T13:16:13.830Z,100369.06
2022-12-06T13:18:45.998Z,100348.78
2022-12-06T13:21:27.872Z,100378.31
2022-12-06T13:24:20.652Z,100364.38
2022-12-06T13:26:55.888Z,100384.31
2022-12-06T13:29:46.274Z,100382.88
2022-12-06T13:32:20.556Z,100387.84
2022-12-06T13:34:56.123Z,100283.19
2022-12-06T13:37:28.333Z,100383.19
2022-12-06T13:39:56.753Z,100325.44
2022-12-06T13:42:45.823Z,100352.28
2022-12-06T13:45:38.688Z,100361.84
2022-12-06T13:48:25.393Z,100366.63
2022-12-06T13:51:08.365Z,100336.09
2022-12-06T13:54:05.159Z,100375.75
2022-12-06T13:56:34.402Z,100386.53
2022-12-06T13:59:26.017Z,100382.44
2022-12-06T14:01:56.472Z,100388.69
2022-12-06T14:04:24.354Z,100384.06
2022-12-06T14:06:53.367Z,100387.28
2022-12-06T14:09:26.265Z,100378.81
2022-12-06T14:12:00.139Z,100370.81
2022-12-06T14:14:27.872Z,100356.31
2022-12-06T14:17:11.840Z,100369.78
2022-12-06T14:19:50.834Z,100384.94
2022-12-06T14:22:29.543Z,100285.66
2022-12-06T14:25:05.956Z,100354.09
2022-12-06T14:27:42.024Z,100359.91
2022-12-06T14:30:27.127Z,100369.50
2022-12-06T14:32:57.451Z,100313.88
2022-12-06T14:35:29.881Z,100373.72
2022-12-06T14:38:03.486Z,100377.81
2022-12-06T14:41:00.374Z,100377.19
2022-12-06T14:43:30.756Z,100375.50
2022-12-06T14:46:00.956Z,100367.72
2022-12-06T14:48:51.804Z,100368.22
2022-12-06T14:51:24.510Z,100381.03
2022-12-06T14:53:52.793Z,100333.66
2022-12-06T14:56:35.463Z,100396.56
2022-12-06T14:59:12.647Z,100382.59
2022-12-06T15:01:49.210Z,100396.94
2022-12-06T15:04:38.650Z,100401.38
2022-12-06T15:07:06.769Z,100368.84
2022-12-06T15:09:45.399Z,100377.22
2022-12-06T15:12:45.899Z,100356.19
2022-12-06T15:15:41.604Z,100378.31
2022-12-06T15:18:14.220Z,100346.03
2022-12-06T15:20:41.964Z,100388.19
2022-12-06T15:23:28.471Z,100397.38
2022-12-06T15:25:57.499Z,100355.81
2022-12-06T15:28:25.558Z,100395.47
2022-12-06T15:30:53.528Z,100396.88
2022-12-06T15:33:24.199Z,100398.47
2022-12-06T15:35:52.163Z,100401.72
2022-12-06T15:38:19.814Z,100401.81
2022-12-06T15:40:50.169Z,100400.63
2022-12-06T15:43:31.722Z,100406.97
2022-12-06T15:46:04.179Z,100375.69
2022-12-06T15:48:37.643Z,100394.38
2022-12-06T15:51:10.350Z,100376.34
2022-12-06T15:53:39.506Z,100391.00
2022-12-06T15:56:12.000Z,100359.72
2022-12-06T15:58:39.636Z,100389.75
2022-12-06T16:01:25.670Z,100392.38
2022-12-06T16:03:55.453Z,100417.47
2022-12-06T16:06:25.278Z,100410.25
2022-12-06T16:08:54.159Z,100424.31
2022-12-06T16:11:25.299Z,100427.34
2022-12-06T16:13:53.708Z,100419.31
2022-12-06T16:16:23.110Z,100435.00
2022-12-06T16:18:52.076Z,100431.16
2022-12-06T16:21:29.092Z,100438.81
2022-12-06T16:24:16.458Z,100336.19
2022-12-06T16:26:46.275Z,100404.22
2022-12-06T16:29:14.250Z,100438.53
2022-12-06T16:31:42.025Z,100391.50
2022-12-06T16:34:10.403Z,100436.81
2022-12-06T16:37:02.754Z,100431.38
2022-12-06T16:39:33.668Z,100440.34
2022-12-06T16:42:03.577Z,100420.41
2022-12-06T16:44:31.818Z,100442.25
2022-12-06T16:46:59.916Z,100413.13
2022-12-06T16:49:48.261Z,100440.34
2022-12-06T16:52:17.202Z,100419.81
2022-12-06T16:54:45.064Z,100435.72
2022-12-06T16:57:14.150Z,100439.03
2022-12-06T16:59:43.502Z,100431.16
2022-12-06T17:02:27.415Z,100403.91
2022-12-06T17:04:56.724Z,100426.81
2022-12-06T17:07:24.577Z,100379.34
2022-12-06T17:09:52.966Z,100425.47
2022-12-06T17:12:21.021Z,100424.66
2022-12-06T17:14:48.771Z,100395.22
2022-12-06T17:17:19.087Z,100420.78
2022-12-06T17:19:46.739Z,100376.00
2022-12-06T17:22:19.352Z,100375.41
2022-12-06T17:24:47.219Z,100428.34
2022-12-06T17:27:16.371Z,100448.66
2022-12-06T17:29:44.847Z,100443.50
2022-12-06T17:32:13.899Z,100425.16
2022-12-06T17:34:42.741Z,100425.69
2022-12-06T17:37:11.028Z,100441.81
2022-12-06T17:39:39.138Z,100447.53
2022-12-06T17:42:25.609Z,100444.03
2022-12-06T17:44:53.393Z,100426.78
2022-12-06T17:47:21.137Z,100393.53
2022-12-06T17:49:49.150Z,100399.41
2022-12-06T17:52:17.329Z,100429.44
2022-12-06T17:54:44.990Z,100426.22
2022-12-06T17:57:18.720Z,100427.31
2022-12-06T17:59:48.185Z,100442.47
2022-12-06T18:02:19.679Z,100352.03
2022-12-06T18:04:48.316Z,100361.47
2022-12-06T18:07:18.091Z,100456.59
2022-12-06T18:09:46.371Z,100435.25
2022-12-06T18:12:15.866Z,100449.09
2022-12-06T18:14:45.169Z,100435.06
2022-12-06T18:17:13.258Z,100462.03
2022-12-06T18:19:41.077Z,100448.91
2022-12-06T18:22:09.241Z,100401.03
2022-12-06T18:24:37.829Z,100469.22
2022-12-06T18:27:06.879Z,100441.38
2022-12-06T18:29:35.080Z,100391.97
2022-12-06T18:32:04.238Z,100456.41
2022-12-06T18:34:32.134Z,100456.34
2022-12-06T18:37:00.082Z,100464.06
2022-12-06T18:39:29.418Z,100388.19
2022-12-06T18:41:57.815Z,100459.56
2022-12-06T18:44:27.299Z,100455.44
2022-12-06T18:46:55.080Z,100358.53
2022-12-06T18:49:23.974Z,100451.09
2022-12-06T18:51:51.792Z,100441.91
2022-12-06T18:54:21.741Z,100367.34
2022-12-06T18:56:49.460Z,100463.72
2022-12-06T18:59:17.370Z,100402.94
2022-12-06T19:01:45.600Z,100446.63
2022-12-06T19:04:14.920Z,100489.63
2022-12-06T19:06:43.627Z,100458.53
2022-12-06T19:09:16.478Z,100451.06
2022-12-06T19:11:46.488Z,100451.88
2022-12-06T19:14:15.543Z,100473.75
2022-12-06T19:16:48.984Z,100452.69
2022-12-06T19:19:25.709Z,100478.59
2022-12-06T19:21:54.766Z,100377.34
2022-12-06T19:24:24.925Z,100472.34
2022-12-06T19:26:56.460Z,100476.41
2022-12-06T19:29:25.182Z,100431.34
2022-12-06T19:31:52.907Z,100466.69
2022-12-06T19:34:24.059Z,100442.34
2022-12-06T19:36:53.366Z,100470.38
2022-12-06T19:39:25.732Z,100446.09
2022-12-06T19:42:19.448Z,100433.38
2022-12-06T19:44:48.343Z,100457.72
2022-12-06T19:47:16.256Z,100433.72
2022-12-06T19:49:47.860Z,100434.94
2022-12-06T19:52:20.803Z,100400.53
2022-12-06T19:54:50.194Z,100472.50
2022-12-06T19:57:18.104Z,100470.69
2022-12-06T19:59:45.739Z,100401.84
2022-12-06T20:02:14.061Z,100442.63
2022-12-06T20:04:42.222Z,100412.72
2022-12-06T20:07:10.213Z,100400.16
2022-12-06T20:09:39.780Z,100443.00
2022-12-06T20:12:07.868Z,100392.00
2022-12-06T20:14:47.176Z,100471.22
2022-12-06T20:17:18.035Z,100445.31
2022-12-06T20:19:46.576Z,100477.19
2022-12-06T20:22:18.423Z,100471.19
2022-12-06T20:24:46.751Z,100449.25
2022-12-06T20:27:15.491Z,100427.97
2022-12-06T20:29:43.497Z,100438.72
2022-12-06T20:32:12.728Z,100410.91
2022-12-06T20:34:41.447Z,100479.94
2022-12-06T20:37:09.111Z,100434.28
2022-12-06T20:39:36.895Z,100382.94
2022-12-06T20:42:07.613Z,100484.94
2022-12-06T20:44:37.798Z,100480.63
2022-12-06T20:47:05.775Z,100404.00
2022-12-06T20:49:33.573Z,100485.75
2022-12-06T20:52:03.056Z,100365.09
2022-12-06T20:54:30.954Z,100455.34
2022-12-06T20:56:58.880Z,100447.69
2022-12-06T20:59:27.043Z,100427.53
2022-12-06T21:01:55.097Z,100477.94
2022-12-06T21:04:24.122Z,100476.63
2022-12-06T21:06:52.676Z,100451.59
2022-12-06T21:09:23.519Z,100469.13
2022-12-06T21:11:51.541Z,100448.13
2022-12-06T21:14:19.548Z,100453.28
2022-12-06T21:16:47.262Z,100446.38
2022-12-06T21:19:17.977Z,100477.94
2022-12-06T21:21:49.363Z,100437.19
2022-12-06T21:24:20.148Z,100460.69
2022-12-06T21:26:48.718Z,100435.13
2022-12-06T21:29:20.107Z,100461.28
2022-12-06T21:31:48.989Z,100419.19
2022-12-06T21:34:17.394Z,100440.47
2022-12-06T21:36:46.252Z,100459.03
2022-12-06T21:39:15.300Z,100480.59
2022-12-06T21:41:45.358Z,100488.22
2022-12-06T21:44:13.128Z,100452.97
2022-12-06T21:46:40.873Z,100405.38
2022-12-06T21:49:08.683Z,100403.53
2022-12-06T21:51:36.311Z,100482.94
2022-12-06T21:54:04.103Z,100490.88
2022-12-06T21:56:33.289Z,100497.94
2022-12-06T21:59:04.686Z,100480.09
2022-12-06T22:01:33.472Z,100493.13
2022-12-06T22:04:03.810Z,100487.19
2022-12-06T22:06:32.793Z,100421.81
2022-12-06T22:09:03.844Z,100486.44
2022-12-06T22:11:33.346Z,100412.06
2022-12-06T22:14:01.355Z,100480.22
2022-12-06T22:16:29.321Z,100447.72
2022-12-06T22:18:58.004Z,100488.50
2022-12-06T22:21:28.177Z,100418.78
2022-12-06T22:23:59.659Z,100481.28
2022-12-06T22:26:29.851Z,100492.31
2022-12-06T22:28:59.660Z,100495.41
2022-12-06T22:31:35.893Z,100468.94
2022-12-06T22:34:04.070Z,100463.00
2022-12-06T22:36:32.944Z,100453.25
2022-12-06T22:39:02.934Z,100488.38
2022-12-06T22:41:31.071Z,100406.28
2022-12-06T22:44:01.331Z,100479.72
2022-12-06T22:46:30.982Z,100485.16
2022-12-06T22:49:00.294Z,100479.47
2022-12-06T22:51:30.564Z,100495.06
2022-12-06T22:54:01.045Z,100446.63
2022-12-06T22:56:30.138Z,100482.28
2022-12-06T22:58:59.406Z,100458.25
2022-12-06T23:01:30.076Z,100485.59
2022-12-06T23:04:00.224Z,100448.31
2022-12-06T23:06:28.461Z,100485.88
2022-12-06T23:08:56.916Z,100414.50
2022-12-06T23:11:32.778Z,100472.78
2022-12-06T23:14:00.567Z,100448.00
2022-12-06T23:16:29.741Z,100442.28
2022-12-06T23:19:00.174Z,100447.16
2022-12-06T23:21:35.883Z,100427.94
2022-12-06T23:24:09.963Z,100430.72
2022-12-06T23:26:44.127Z,100392.03
2022-12-06T23:29:12.113Z,100453.41
2022-12-06T23:31:42.417Z,100453.88
2022-12-06T23:34:26.290Z,100455.50
2022-12-06T23:36:54.671Z,100439.56
2022-12-06T23:39:22.331Z,100456.53
2022-12-06T23:41:49.995Z,100445.94
2022-12-06T23:44:17.854Z,100445.44
2022-12-06T23:46:46.194Z,100358.44
2022-12-06T23:49:20.253Z,100397.03
2022-12-06T23:51:48.756Z,100392.47
2022-12-06T23:54:18.288Z,100428.38
2022-12-06T23:56:46.450Z,100436.53
2022-12-06T23:59:15.808Z,100398.44
